Terminal Aerodrome Forecast
Issued by NWS Twin Cities, MN

Home | Current Version | Previous Version | Text Only | Print | Product List | Glossary On
Versions: 1 2 3 4 5 6 7 8 9 10 11 12 13 14 15 16 17 18 19 20 21 22 23 24 25 26 27 28
763
FTUS43 KMPX 110258 AAA
TAFMSP
TAF AMD
KMSP 110258Z 1103/1206 18004KT P6SM SCT050 BKN150
     FM110600 17004KT 1 1/2SM -SN OVC020
     FM110800 17004KT P6SM SCT040 BKN080
     FM111300 25005KT P6SM SCT025 BKN070
     FM111500 30009KT P6SM VCSH OVC020
     FM111900 33014G24KT P6SM OVC015
     FM112300 33017G25KT P6SM BKN045=

USA.gov is the U.S. government's official web portal to all federal, state and local government web resources and services.